createdAt,value
2018-11-06T11:17:21.810Z,1013.05
2018-11-06T11:18:48.300Z,1013.04
2018-11-06T11:20:15.799Z,1013.02
2018-11-06T11:21:43.052Z,1013.02
2018-11-06T11:23:10.498Z,1013.05
2018-11-06T11:24:38.055Z,1013.04
2018-11-06T11:26:05.445Z,1013.02
2018-11-06T11:27:32.753Z,1013.03
2018-11-06T11:29:00.301Z,1013.04
2018-11-06T11:30:27.989Z,1013.06
2018-11-06T11:31:55.605Z,1013.07
2018-11-06T11:33:23.066Z,1013.07
2018-11-06T11:34:50.380Z,1013.07
2018-11-06T11:36:17.950Z,1013.07
2018-11-06T11:37:45.401Z,1013.08
2018-11-06T11:39:12.839Z,1013.13
2018-11-06T11:40:40.282Z,1013.17
2018-11-06T11:42:07.773Z,1013.19
2018-11-06T11:43:35.174Z,1013.24
2018-11-06T11:45:02.701Z,1013.24
2018-11-06T11:46:30.160Z,1013.20
2018-11-06T11:47:57.755Z,1013.18
2018-11-06T11:49:25.053Z,1013.15
2018-11-06T11:50:52.532Z,1013.14
2018-11-06T11:52:20.036Z,1013.15
2018-11-06T11:53:47.299Z,1013.15
2018-11-06T11:55:14.883Z,1013.17
2018-11-06T11:56:42.190Z,1013.18
2018-11-06T11:58:09.714Z,1013.20
2018-11-06T11:59:37.236Z,1013.21
2018-11-06T12:01:04.708Z,1013.24
2018-11-06T12:02:32.270Z,1013.24
2018-11-06T12:03:59.813Z,1013.25
2018-11-06T12:05:27.324Z,1013.24
2018-11-06T12:06:55.032Z,1013.23
2018-11-06T12:08:22.454Z,1013.21
2018-11-06T12:09:49.957Z,1013.18
2018-11-06T12:11:17.338Z,1013.19
2018-11-06T12:12:44.806Z,1013.18
2018-11-06T12:14:12.365Z,1013.17
2018-11-06T12:15:39.728Z,1013.20
2018-11-06T12:17:07.193Z,1013.21
2018-11-06T12:18:34.623Z,1013.18
2018-11-06T12:20:02.117Z,1013.18
2018-11-06T12:21:29.449Z,1013.16
2018-11-06T12:22:57.032Z,1013.13
2018-11-06T12:24:24.433Z,1013.14
2018-11-06T12:25:52.088Z,1013.11
2018-11-06T12:27:19.382Z,1013.10
2018-11-06T12:28:46.836Z,1013.14
2018-11-06T12:30:14.434Z,1013.17
2018-11-06T12:31:41.824Z,1013.18
2018-11-06T12:33:09.247Z,1013.14
2018-11-06T12:34:36.797Z,1013.07
2018-11-06T12:36:04.293Z,1013.06
2018-11-06T12:37:31.899Z,1013.06
2018-11-06T12:38:59.265Z,1013.05
2018-11-06T12:40:26.790Z,1013.01
2018-11-06T12:41:54.260Z,1012.99
2018-11-06T12:43:21.835Z,1012.97
2018-11-06T12:44:49.297Z,1012.98
2018-11-06T12:46:17.010Z,1012.98
2018-11-06T12:47:44.429Z,1012.99
2018-11-06T12:49:11.949Z,1013.01
2018-11-06T12:50:39.385Z,1013.00
2018-11-06T12:52:06.769Z,1012.98
2018-11-06T12:53:34.192Z,1012.97
2018-11-06T12:55:01.706Z,1012.97
2018-11-06T12:56:29.116Z,1012.99
2018-11-06T12:57:56.579Z,1012.97
2018-11-06T12:59:23.656Z,1012.98
2018-11-06T13:00:50.281Z,1012.97
2018-11-06T13:02:17.215Z,1012.95
2018-11-06T13:03:43.990Z,1012.95
2018-11-06T13:05:10.653Z,1012.96
2018-11-06T13:06:37.508Z,1012.98
2018-11-06T13:08:04.040Z,1013.00
2018-11-06T13:09:30.381Z,1013.01
2018-11-06T13:10:57.076Z,1013.01
2018-11-06T13:12:23.774Z,1013.00
2018-11-06T13:13:50.982Z,1012.97
2018-11-06T13:15:17.914Z,1012.99
2018-11-06T13:16:44.031Z,1013.03
2018-11-06T13:18:10.780Z,1013.01
2018-11-06T13:19:37.456Z,1013.04
2018-11-06T13:21:03.718Z,1013.07
2018-11-06T13:22:30.311Z,1013.07
2018-11-06T13:23:56.828Z,1013.05
2018-11-06T13:25:26.517Z,1013.06
2018-11-06T13:26:49.892Z,1013.05
2018-11-06T13:28:16.496Z,1013.09
2018-11-06T13:29:43.319Z,1013.10
2018-11-06T13:31:09.777Z,1013.13
2018-11-06T13:32:36.316Z,1013.14
2018-11-06T13:34:03.191Z,1013.17
2018-11-06T13:35:29.863Z,1013.22
2018-11-06T13:36:56.367Z,1013.26
2018-11-06T13:38:22.704Z,1013.27
2018-11-06T13:39:49.232Z,1013.28
2018-11-06T13:41:15.910Z,1013.31
2018-11-06T13:42:42.793Z,1013.31
2018-11-06T13:44:09.230Z,1013.33
2018-11-06T13:45:36.021Z,1013.32
2018-11-06T13:47:02.749Z,1013.32
2018-11-06T13:48:29.264Z,1013.32
2018-11-06T13:49:55.474Z,1013.31
2018-11-06T13:51:22.051Z,1013.30
2018-11-06T13:52:48.889Z,1013.34
2018-11-06T13:54:15.379Z,1013.34
2018-11-06T13:55:42.157Z,1013.36
2018-11-06T13:57:08.584Z,1013.37
2018-11-06T13:58:34.979Z,1013.36
2018-11-06T14:00:01.680Z,1013.38
2018-11-06T14:01:27.915Z,1013.38
2018-11-06T14:02:54.444Z,1013.36
2018-11-06T14:04:21.208Z,1013.37
2018-11-06T14:05:47.726Z,1013.39
2018-11-06T14:07:14.236Z,1013.42
2018-11-06T14:08:40.656Z,1013.45
2018-11-06T14:10:06.949Z,1013.48
2018-11-06T14:11:33.357Z,1013.50
2018-11-06T14:12:59.843Z,1013.49
2018-11-06T14:14:26.815Z,1013.48
2018-11-06T14:15:53.829Z,1013.48
2018-11-06T14:17:20.742Z,1013.50
2018-11-06T14:18:47.741Z,1013.54
2018-11-06T14:20:14.775Z,1013.56
2018-11-06T14:21:42.064Z,1013.59
2018-11-06T14:23:09.153Z,1013.57
2018-11-06T14:24:36.313Z,1013.57
2018-11-06T14:26:03.475Z,1013.54
2018-11-06T14:27:30.559Z,1013.56
2018-11-06T14:28:57.528Z,1013.57
2018-11-06T14:30:24.578Z,1013.57
2018-11-06T14:31:51.695Z,1013.57
2018-11-06T14:33:18.847Z,1013.61
2018-11-06T14:34:45.888Z,1013.61
2018-11-06T14:36:12.792Z,1013.63
